createdAt,value
2018-12-27T00:02:33.098Z,14.43
2018-12-27T00:05:14.386Z,13.63
2018-12-27T00:07:55.179Z,14.70
2018-12-27T00:10:36.069Z,13.67
2018-12-27T00:13:17.160Z,14.30
2018-12-27T00:15:58.510Z,15.87
2018-12-27T00:18:39.933Z,14.73
2018-12-27T00:21:21.497Z,14.60
2018-12-27T00:24:02.895Z,14.70
2018-12-27T00:26:44.141Z,15.53
2018-12-27T00:29:25.612Z,16.13
2018-12-27T00:32:07.061Z,14.63
2018-12-27T00:34:47.781Z,15.70
2018-12-27T00:37:28.612Z,15.17
2018-12-27T00:40:09.268Z,15.03
2018-12-27T00:42:50.660Z,15.47
2018-12-27T00:45:32.071Z,15.00
2018-12-27T00:48:13.782Z,14.93
2018-12-27T00:50:54.566Z,14.20
2018-12-27T00:53:36.005Z,14.57
2018-12-27T00:56:17.304Z,13.90
2018-12-27T00:58:58.037Z,15.07
2018-12-27T01:01:39.457Z,14.60
2018-12-27T01:04:20.993Z,14.07
2018-12-27T01:07:02.472Z,13.60
2018-12-27T01:09:43.224Z,14.10
2018-12-27T01:12:24.237Z,14.40
2018-12-27T01:15:04.002Z,15.13
2018-12-27T01:17:52.666Z,14.03
2018-12-27T01:20:33.663Z,15.07
2018-12-27T01:23:15.236Z,14.70
2018-12-27T01:25:56.747Z,16.30
2018-12-27T01:28:38.362Z,15.27
2018-12-27T01:31:19.605Z,16.23
2018-12-27T01:34:01.046Z,15.43
2018-12-27T01:39:50.596Z,16.57
2018-12-27T01:42:31.436Z,15.87
2018-12-27T01:45:12.540Z,16.77
2018-12-27T01:47:53.342Z,16.07
2018-12-27T01:50:34.847Z,17.23
2018-12-27T01:53:15.700Z,16.80
2018-12-27T01:55:56.983Z,16.80
2018-12-27T01:58:38.472Z,17.93
2018-12-27T02:01:20.074Z,17.30
2018-12-27T02:04:01.526Z,18.70
2018-12-27T02:06:42.886Z,17.70
2018-12-27T02:09:24.457Z,17.80
2018-12-27T02:12:05.916Z,19.13
2018-12-27T02:14:46.584Z,18.10
2018-12-27T02:17:28.001Z,19.13
2018-12-27T02:20:08.890Z,19.13
2018-12-27T02:22:49.939Z,19.93
2018-12-27T02:25:31.354Z,17.83
2018-12-27T02:31:14.180Z,19.37
2018-12-27T02:33:55.597Z,19.80
2018-12-27T02:36:36.741Z,18.27
2018-12-27T02:39:18.181Z,19.50
2018-12-27T02:41:59.374Z,19.37
2018-12-27T02:44:40.146Z,20.13
2018-12-27T02:47:21.732Z,20.37
2018-12-27T02:50:03.039Z,19.23
2018-12-27T02:52:43.804Z,18.73
2018-12-27T02:55:24.955Z,19.63
2018-12-27T02:58:05.881Z,20.03
2018-12-27T03:00:46.908Z,19.03
2018-12-27T03:03:27.675Z,19.57
2018-12-27T03:06:09.072Z,20.67
2018-12-27T03:08:50.508Z,18.47
2018-12-27T03:11:31.203Z,18.27
2018-12-27T03:14:12.208Z,19.27
2018-12-27T03:16:53.576Z,18.97
2018-12-27T03:19:35.096Z,19.93
2018-12-27T03:22:15.808Z,19.40
2018-12-27T03:24:57.199Z,19.83
2018-12-27T03:27:38.734Z,18.53
2018-12-27T03:30:20.333Z,20.67
2018-12-27T03:33:01.066Z,19.63
2018-12-27T03:35:42.164Z,19.47
2018-12-27T03:38:22.904Z,19.83
2018-12-27T03:41:04.497Z,20.03
2018-12-27T03:43:45.367Z,20.63
2018-12-27T03:46:26.517Z,19.80
2018-12-27T03:49:07.910Z,20.10
2018-12-27T03:51:48.812Z,20.40
2018-12-27T03:54:30.479Z,20.40
2018-12-27T03:57:11.979Z,20.33
2018-12-27T03:59:51.755Z,20.13
2018-12-27T04:02:32.414Z,20.53
2018-12-27T04:05:13.064Z,21.03
2018-12-27T04:07:53.743Z,21.57
2018-12-27T04:10:34.664Z,20.60
2018-12-27T04:13:16.304Z,22.03
2018-12-27T04:15:57.003Z,19.73
2018-12-27T04:18:37.733Z,21.10
2018-12-27T04:21:19.069Z,21.87
2018-12-27T04:26:58.568Z,20.30
2018-12-27T04:32:58.497Z,23.00
2018-12-27T04:35:40.094Z,22.20
2018-12-27T04:38:21.623Z,22.13
2018-12-27T04:41:03.169Z,21.90
2018-12-27T04:43:44.324Z,21.93
2018-12-27T04:46:25.825Z,22.47
2018-12-27T04:49:06.505Z,22.50
2018-12-27T04:51:48.025Z,23.10
2018-12-27T04:54:28.822Z,23.00
2018-12-27T04:57:10.152Z,22.27
2018-12-27T04:59:51.559Z,23.10
2018-12-27T05:02:32.418Z,23.67
2018-12-27T05:05:13.113Z,23.13
2018-12-27T05:07:54.580Z,22.10
2018-12-27T05:10:35.819Z,22.27
2018-12-27T05:15:58.816Z,22.33
2018-12-27T05:18:40.440Z,22.80
2018-12-27T05:21:21.116Z,22.23
2018-12-27T05:24:02.638Z,21.17
2018-12-27T05:26:44.158Z,22.33
2018-12-27T05:29:24.961Z,23.63
2018-12-27T05:32:06.634Z,24.53
2018-12-27T05:34:48.096Z,23.73
2018-12-27T05:37:29.413Z,22.20
2018-12-27T05:40:10.059Z,22.97
2018-12-27T05:42:51.564Z,23.10
2018-12-27T05:45:32.906Z,23.53
2018-12-27T05:48:14.371Z,22.50
2018-12-27T05:50:55.781Z,21.70
2018-12-27T05:53:36.710Z,22.23
2018-12-27T05:56:17.932Z,22.37
2018-12-27T05:58:59.132Z,21.60
2018-12-27T06:01:40.530Z,22.67
2018-12-27T06:04:22.137Z,22.37
2018-12-27T06:07:03.000Z,22.03
2018-12-27T06:09:43.982Z,21.70
2018-12-27T06:12:25.406Z,23.53
2018-12-27T06:15:07.028Z,22.30
2018-12-27T06:17:46.602Z,21.83
2018-12-27T06:20:27.479Z,23.63
2018-12-27T06:23:08.412Z,22.60
2018-12-27T06:25:49.833Z,21.43
2018-12-27T06:28:30.841Z,22.20
2018-12-27T06:31:11.970Z,22.23
2018-12-27T06:33:53.490Z,21.17
2018-12-27T06:36:34.676Z,21.57
2018-12-27T06:42:27.992Z,20.97
2018-12-27T06:45:08.612Z,22.33
2018-12-27T06:47:50.317Z,22.00
2018-12-27T06:50:31.111Z,21.60
2018-12-27T06:53:11.882Z,21.00
2018-12-27T06:55:53.271Z,20.90
2018-12-27T06:58:37.740Z,21.53
2018-12-27T07:01:16.460Z,20.93
2018-12-27T07:03:58.072Z,20.73
2018-12-27T07:06:39.273Z,21.27
2018-12-27T07:09:19.972Z,21.10
2018-12-27T07:12:00.670Z,20.73
2018-12-27T07:14:42.144Z,21.70
2018-12-27T07:17:23.683Z,21.40
2018-12-27T07:20:05.270Z,21.40
2018-12-27T07:22:46.473Z,20.80
2018-12-27T07:25:27.499Z,21.40
2018-12-27T07:28:08.479Z,20.97
2018-12-27T07:30:38.027Z,22.10
2018-12-27T07:33:26.654Z,20.93
2018-12-27T07:36:15.249Z,20.40
2018-12-27T07:38:56.732Z,21.33
2018-12-27T07:41:38.394Z,21.27
2018-12-27T07:44:19.897Z,22.20
2018-12-27T07:47:01.180Z,21.20
2018-12-27T07:49:42.736Z,21.00
2018-12-27T07:52:24.229Z,20.90
2018-12-27T07:55:04.982Z,20.37
2018-12-27T07:57:46.392Z,22.20
2018-12-27T08:00:27.399Z,21.47
2018-12-27T08:03:09.050Z,22.27
2018-12-27T08:08:34.409Z,22.10
2018-12-27T08:14:35.129Z,23.53
2018-12-27T08:17:16.409Z,21.07
2018-12-27T08:19:57.883Z,22.03
2018-12-27T08:25:21.164Z,22.80
2018-12-27T08:28:02.855Z,21.60
2018-12-27T08:30:44.346Z,22.23
2018-12-27T08:33:25.204Z,23.17
2018-12-27T08:36:06.311Z,21.07
2018-12-27T08:38:47.650Z,22.77
2018-12-27T08:41:29.170Z,21.60
2018-12-27T08:44:10.703Z,21.93
2018-12-27T08:46:51.982Z,20.80
2018-12-27T08:49:32.750Z,21.93
2018-12-27T08:52:14.174Z,20.27
2018-12-27T08:54:55.145Z,22.10
2018-12-27T08:57:36.279Z,21.77
2018-12-27T09:00:17.021Z,20.93
2018-12-27T09:02:57.884Z,20.43
2018-12-27T09:05:39.084Z,21.13
2018-12-27T09:08:20.086Z,19.47
2018-12-27T09:11:01.265Z,20.87
2018-12-27T09:13:42.158Z,19.47
2018-12-27T09:16:23.508Z,20.30
2018-12-27T09:19:04.426Z,19.27
2018-12-27T09:21:45.463Z,20.13
2018-12-27T09:24:27.059Z,17.70
2018-12-27T09:27:08.233Z,18.30
2018-12-27T09:29:49.061Z,18.47
2018-12-27T09:32:30.360Z,18.60
2018-12-27T09:35:11.991Z,18.33
2018-12-27T09:37:53.664Z,17.50
2018-12-27T09:40:34.768Z,17.63
2018-12-27T09:43:16.265Z,17.43
2018-12-27T09:45:57.588Z,18.07
2018-12-27T09:48:39.089Z,19.43
2018-12-27T09:51:20.335Z,18.10
2018-12-27T09:54:04.918Z,17.73
2018-12-27T09:56:45.950Z,16.93
2018-12-27T09:59:27.454Z,17.23
2018-12-27T10:02:08.821Z,16.90
2018-12-27T10:04:49.487Z,17.87
2018-12-27T10:07:30.906Z,16.90
2018-12-27T10:10:11.991Z,16.57
2018-12-27T10:12:52.788Z,16.90
2018-12-27T10:15:37.113Z,15.80
2018-12-27T10:18:18.092Z,16.07
2018-12-27T10:20:59.781Z,15.73
2018-12-27T10:23:40.766Z,15.50
2018-12-27T10:26:10.315Z,16.00
2018-12-27T10:28:58.916Z,14.00
2018-12-27T10:31:39.741Z,14.03
2018-12-27T10:34:21.184Z,14.80
2018-12-27T10:37:02.598Z,15.00
2018-12-27T10:42:27.676Z,13.70
2018-12-27T10:48:18.278Z,13.77
2018-12-27T10:50:59.705Z,12.87
2018-12-27T10:53:40.914Z,14.73
2018-12-27T10:56:22.535Z,16.10
2018-12-27T10:59:03.406Z,13.90
2018-12-27T11:01:44.429Z,14.93
2018-12-27T11:04:25.216Z,14.20
2018-12-27T11:07:06.509Z,13.97
2018-12-27T11:09:48.233Z,14.70
2018-12-27T11:12:29.794Z,14.70
2018-12-27T11:15:16.527Z,13.73
2018-12-27T11:26:49.831Z,15.53
2018-12-27T11:29:31.268Z,15.20
2018-12-27T11:32:12.353Z,16.60
2018-12-27T11:34:53.187Z,14.63
2018-12-27T11:37:34.175Z,15.13
2018-12-27T11:40:14.925Z,15.73
2018-12-27T11:42:55.776Z,16.87
2018-12-27T11:45:36.911Z,15.80
2018-12-27T11:48:17.643Z,15.87
2018-12-27T11:50:47.239Z,14.97
2018-12-27T11:59:46.827Z,14.73
2018-12-27T12:02:31.183Z,13.43
2018-12-27T12:05:11.616Z,13.23
2018-12-27T12:07:53.005Z,14.40
2018-12-27T12:10:22.620Z,14.13
2018-12-27T12:13:11.285Z,15.70
2018-12-27T12:19:02.560Z,15.20
2018-12-27T12:21:43.743Z,14.57
2018-12-27T12:24:25.275Z,15.03
2018-12-27T12:27:06.958Z,14.53
2018-12-27T12:29:48.593Z,15.37
2018-12-27T12:32:30.013Z,14.53
2018-12-27T12:35:10.976Z,15.73
2018-12-27T12:37:52.442Z,14.57
2018-12-27T12:40:34.118Z,14.33
2018-12-27T12:43:15.596Z,13.70
2018-12-27T12:45:57.378Z,13.93
2018-12-27T12:48:39.111Z,13.93
2018-12-27T12:51:20.600Z,14.13
2018-12-27T12:54:02.183Z,14.03
2018-12-27T12:56:43.082Z,12.97
2018-12-27T12:59:24.679Z,13.53
2018-12-27T13:02:06.327Z,14.03
2018-12-27T13:04:47.740Z,12.47
2018-12-27T13:07:29.078Z,12.33
2018-12-27T13:12:59.694Z,12.60
2018-12-27T13:15:41.147Z,13.23
2018-12-27T13:18:22.825Z,13.30
2018-12-27T13:21:03.603Z,13.63
2018-12-27T13:23:44.397Z,14.70
2018-12-27T13:26:25.891Z,13.93
2018-12-27T13:29:07.299Z,14.13
2018-12-27T13:31:48.736Z,14.40
2018-12-27T13:34:29.599Z,13.93
2018-12-27T13:37:10.860Z,12.87
2018-12-27T13:39:52.452Z,14.07
2018-12-27T13:42:33.918Z,13.50
2018-12-27T13:45:15.370Z,13.80
2018-12-27T13:47:56.769Z,13.97
2018-12-27T13:50:38.016Z,13.87
2018-12-27T13:53:19.203Z,13.63
2018-12-27T13:56:00.462Z,14.40
2018-12-27T13:58:41.852Z,14.67
2018-12-27T14:01:11.512Z,15.30
2018-12-27T14:04:00.145Z,14.60
2018-12-27T14:06:41.608Z,13.87
2018-12-27T14:09:23.208Z,14.77
2018-12-27T14:12:04.429Z,15.20
2018-12-27T14:14:45.674Z,15.17
2018-12-27T14:17:27.178Z,14.90
2018-12-27T14:20:08.604Z,15.93
2018-12-27T14:22:49.973Z,15.87
2018-12-27T14:25:32.373Z,15.50
2018-12-27T14:28:14.034Z,15.73
2018-12-27T14:30:55.588Z,15.57
2018-12-27T14:33:37.095Z,16.13
2018-12-27T14:36:18.461Z,15.10
2018-12-27T14:38:58.183Z,16.47
2018-12-27T14:41:46.761Z,17.83
2018-12-27T14:44:28.368Z,16.17
2018-12-27T14:47:10.030Z,15.63
2018-12-27T14:49:50.866Z,16.23
2018-12-27T14:52:32.564Z,15.30
2018-12-27T14:55:14.203Z,16.00
2018-12-27T14:57:55.555Z,16.03
2018-12-27T15:00:37.274Z,15.43
2018-12-27T15:03:18.509Z,16.37
2018-12-27T15:05:59.395Z,15.67
2018-12-27T15:08:40.803Z,15.83
2018-12-27T15:11:22.523Z,16.17
2018-12-27T15:14:03.825Z,15.57
2018-12-27T15:16:45.303Z,16.43
2018-12-27T15:19:26.713Z,15.13
2018-12-27T15:22:07.481Z,15.97
2018-12-27T15:24:49.049Z,16.93
2018-12-27T15:27:30.536Z,15.83
2018-12-27T15:30:11.972Z,16.87
2018-12-27T15:32:53.628Z,16.00
2018-12-27T15:35:35.329Z,15.07
2018-12-27T15:38:16.905Z,16.87
2018-12-27T15:40:58.525Z,15.87
2018-12-27T15:43:39.276Z,14.80
2018-12-27T15:46:20.640Z,16.43
2018-12-27T15:49:02.194Z,15.87
2018-12-27T15:51:43.773Z,14.77
2018-12-27T15:54:24.532Z,15.47
2018-12-27T15:57:06.037Z,15.63
2018-12-27T15:59:46.935Z,15.53
2018-12-27T16:02:28.416Z,15.63
2018-12-27T16:05:11.381Z,15.17
2018-12-27T16:07:52.317Z,15.07
2018-12-27T16:10:35.263Z,14.33
2018-12-27T16:13:16.091Z,15.60
2018-12-27T16:15:57.599Z,15.53
2018-12-27T16:18:39.004Z,14.43
2018-12-27T16:21:19.835Z,16.10
2018-12-27T16:24:01.041Z,15.20
2018-12-27T16:26:41.830Z,15.17
2018-12-27T16:29:22.896Z,15.73
2018-12-27T16:32:04.409Z,15.17
2018-12-27T16:34:45.721Z,15.33
2018-12-27T16:37:27.222Z,16.03
2018-12-27T16:40:08.528Z,16.40
2018-12-27T16:42:49.281Z,22.00
2018-12-27T16:45:30.901Z,17.20
2018-12-27T16:48:12.542Z,14.77
2018-12-27T16:50:42.343Z,14.17
2018-12-27T16:53:31.079Z,14.90
2018-12-27T16:56:19.918Z,13.67
2018-12-27T16:59:01.098Z,15.10
2018-12-27T17:01:42.810Z,16.33
2018-12-27T17:04:24.111Z,15.43
2018-12-27T17:07:06.319Z,15.63
2018-12-27T17:15:47.902Z,14.77
2018-12-27T17:18:28.718Z,14.20
2018-12-27T17:21:10.206Z,14.43
2018-12-27T17:23:51.687Z,15.10
2018-12-27T17:26:21.234Z,14.50
2018-12-27T17:29:02.037Z,15.40
2018-12-27T17:31:42.753Z,15.03
2018-12-27T17:34:23.490Z,14.60
2018-12-27T17:37:04.547Z,14.97
2018-12-27T17:39:45.575Z,14.93
2018-12-27T17:42:26.933Z,13.97
2018-12-27T17:45:08.150Z,13.97
2018-12-27T17:47:48.888Z,13.17
2018-12-27T17:50:30.468Z,14.20
2018-12-27T17:53:11.190Z,13.43
2018-12-27T17:55:50.893Z,14.40
2018-12-27T17:58:31.753Z,15.57
2018-12-27T18:01:12.827Z,15.20
2018-12-27T18:03:53.695Z,15.40
2018-12-27T18:06:35.096Z,16.37
2018-12-27T18:09:17.428Z,15.10
2018-12-27T18:12:03.575Z,13.50
2018-12-27T18:14:46.554Z,13.07
2018-12-27T18:17:49.917Z,13.40
2018-12-27T18:20:16.344Z,13.70
2018-12-27T18:22:57.477Z,14.20
2018-12-27T18:25:38.747Z,12.87
2018-12-27T18:28:19.588Z,13.87
2018-12-27T18:31:01.199Z,12.93
2018-12-27T18:33:42.750Z,12.97
2018-12-27T18:36:23.732Z,14.17
2018-12-27T18:45:07.840Z,13.00
2018-12-27T18:50:26.627Z,13.33
2018-12-27T18:53:15.532Z,12.80
2018-12-27T18:55:56.574Z,13.37
2018-12-27T18:58:38.514Z,12.57
2018-12-27T19:01:19.899Z,14.13
2018-12-27T19:04:01.205Z,13.37
2018-12-27T19:06:42.462Z,13.63
2018-12-27T19:09:24.247Z,13.00
2018-12-27T19:12:05.648Z,14.53
2018-12-27T19:14:46.572Z,13.07
2018-12-27T19:17:54.348Z,13.03
2018-12-27T19:20:44.201Z,14.50
2018-12-27T19:23:25.051Z,11.93
2018-12-27T19:25:55.168Z,14.20
2018-12-27T19:28:44.507Z,13.37
2018-12-27T19:31:33.257Z,13.13
2018-12-27T19:34:15.284Z,12.33
2018-12-27T19:36:45.379Z,12.40
2018-12-27T19:39:16.603Z,12.57
2018-12-27T19:45:15.269Z,12.63
2018-12-27T19:47:56.495Z,12.90
2018-12-27T19:50:37.599Z,13.23
2018-12-27T19:53:18.901Z,13.53
2018-12-27T19:56:00.600Z,13.27
2018-12-27T19:58:42.079Z,12.43
2018-12-27T20:01:12.289Z,13.47
2018-12-27T20:04:01.275Z,14.13
2018-12-27T20:06:31.613Z,14.00
2018-12-27T20:09:22.013Z,12.40
2018-12-27T20:12:03.497Z,12.10
2018-12-27T20:14:45.045Z,11.40
2018-12-27T20:17:26.396Z,11.60
2018-12-27T20:20:07.464Z,13.30
2018-12-27T20:22:49.185Z,13.20
2018-12-27T20:25:31.360Z,12.93
2018-12-27T20:28:13.908Z,13.07
2018-12-27T20:30:56.791Z,12.27
2018-12-27T20:33:38.374Z,12.13
2018-12-27T20:36:21.526Z,12.17
2018-12-27T20:39:02.795Z,12.80
2018-12-27T20:41:43.755Z,11.67
2018-12-27T20:44:24.392Z,12.93
2018-12-27T20:47:06.978Z,12.87
2018-12-27T20:49:48.449Z,12.67
2018-12-27T20:52:29.380Z,13.47
2018-12-27T20:55:11.542Z,13.73
2018-12-27T20:57:52.678Z,14.00
2018-12-27T21:00:33.898Z,12.63
2018-12-27T21:03:15.119Z,12.97
2018-12-27T21:05:56.576Z,13.40
2018-12-27T21:08:38.452Z,12.03
2018-12-27T21:11:19.518Z,13.30
2018-12-27T21:14:02.254Z,12.77
2018-12-27T21:16:43.876Z,13.70
2018-12-27T21:19:26.123Z,12.47
2018-12-27T21:22:07.456Z,14.10
2018-12-27T21:24:37.571Z,13.40
2018-12-27T21:27:26.537Z,12.43
2018-12-27T21:30:07.645Z,11.87
2018-12-27T21:32:48.753Z,12.47
2018-12-27T21:35:31.953Z,12.87
2018-12-27T21:38:13.524Z,12.97
2018-12-27T21:40:54.993Z,11.47
2018-12-27T21:43:25.380Z,12.27
2018-12-27T21:49:17.056Z,11.93
2018-12-27T21:51:57.968Z,12.40
2018-12-27T21:57:28.322Z,12.60
2018-12-27T22:00:10.990Z,11.93
2018-12-27T22:02:52.437Z,11.93
2018-12-27T22:05:33.719Z,10.90
2018-12-27T22:08:15.230Z,11.90
2018-12-27T22:10:57.184Z,11.47
2018-12-27T22:13:38.704Z,11.27
2018-12-27T22:16:20.205Z,10.93
2018-12-27T22:19:01.235Z,11.57
2018-12-27T22:21:42.594Z,12.23
2018-12-27T22:24:24.252Z,11.83
2018-12-27T22:27:06.338Z,12.17
2018-12-27T22:29:48.238Z,12.30
2018-12-27T22:35:42.298Z,11.37
2018-12-27T22:38:23.694Z,11.53
2018-12-27T22:41:06.174Z,11.43
2018-12-27T22:43:47.430Z,11.90
2018-12-27T22:46:28.919Z,12.33
2018-12-27T22:49:10.460Z,11.53
2018-12-27T22:51:52.293Z,12.70
2018-12-27T22:54:33.697Z,11.17
2018-12-27T22:57:03.720Z,11.33
2018-12-27T22:59:52.532Z,11.90
2018-12-27T23:02:34.163Z,10.70
2018-12-27T23:05:15.955Z,11.40
2018-12-27T23:07:57.081Z,12.00
2018-12-27T23:10:38.402Z,12.27
2018-12-27T23:13:20.262Z,11.03
2018-12-27T23:16:02.081Z,11.33
2018-12-27T23:18:43.876Z,12.17
2018-12-27T23:21:25.534Z,11.23
2018-12-27T23:24:06.936Z,11.33
2018-12-27T23:26:48.728Z,11.50
2018-12-27T23:29:30.510Z,11.17
2018-12-27T23:32:12.067Z,11.23
2018-12-27T23:34:53.637Z,11.13
2018-12-27T23:37:35.026Z,11.67
2018-12-27T23:40:16.398Z,11.77
2018-12-27T23:42:57.630Z,10.33
2018-12-27T23:45:39.009Z,10.93
2018-12-27T23:48:20.771Z,11.23
2018-12-27T23:50:50.983Z,11.03
2018-12-27T23:53:39.840Z,11.63
2018-12-27T23:56:21.503Z,11.43
2018-12-27T23:59:03.701Z,11.00
